createdAt,value
2017-03-13T00:00:51.176Z,99.99
2017-03-13T00:01:51.145Z,99.99
2017-03-13T00:02:51.136Z,99.99
2017-03-13T00:03:51.112Z,99.99
2017-03-13T00:04:51.079Z,99.99
2017-03-13T00:05:51.060Z,99.99
2017-03-13T00:06:51.048Z,99.99
2017-03-13T00:07:51.017Z,99.99
2017-03-13T00:08:51.013Z,99.99
2017-03-13T00:09:50.981Z,99.99
2017-03-13T00:10:50.950Z,99.99
2017-03-13T00:11:50.938Z,99.99
2017-03-13T00:12:50.926Z,99.99
2017-03-13T00:13:50.897Z,99.99
2017-03-13T00:14:50.875Z,99.99
2017-03-13T00:15:50.845Z,99.99
2017-03-13T00:16:50.819Z,99.99
2017-03-13T00:17:50.826Z,99.99
2017-03-13T00:18:50.780Z,99.99
2017-03-13T00:19:50.769Z,99.99
2017-03-13T00:20:50.749Z,99.99
2017-03-13T00:21:50.718Z,99.99
2017-03-13T00:22:50.704Z,99.99
2017-03-13T00:23:50.693Z,99.99
2017-03-13T00:24:50.656Z,99.99
2017-03-13T00:25:50.629Z,99.99
2017-03-13T00:26:50.624Z,99.99
2017-03-13T00:27:50.594Z,99.99
2017-03-13T00:28:50.564Z,99.99
2017-03-13T00:29:50.574Z,99.99
2017-03-13T00:30:50.152Z,99.99
2017-03-13T00:31:50.509Z,99.99
2017-03-13T00:32:50.496Z,99.99
2017-03-13T00:33:50.473Z,99.99
2017-03-13T00:34:50.455Z,99.99
2017-03-13T00:35:50.435Z,99.99
2017-03-13T00:36:50.403Z,99.99
2017-03-13T00:37:50.391Z,99.99
2017-03-13T00:38:50.370Z,99.99
2017-03-13T00:39:50.337Z,99.99
2017-03-13T00:40:50.327Z,99.99
2017-03-13T00:41:50.299Z,99.99
2017-03-13T00:42:50.287Z,99.99
2017-03-13T00:43:50.262Z,99.99
2017-03-13T00:44:50.248Z,99.99
2017-03-13T00:45:50.210Z,99.99
2017-03-13T00:46:50.209Z,99.99
2017-03-13T00:47:50.182Z,99.99
2017-03-13T00:48:50.151Z,99.99
2017-03-13T00:49:50.140Z,99.99
2017-03-13T00:50:50.115Z,99.99
2017-03-13T00:51:50.082Z,99.99
2017-03-13T00:52:50.064Z,99.99
2017-03-13T00:53:50.040Z,99.99
2017-03-13T00:54:50.037Z,99.99
2017-03-13T00:55:50.016Z,99.99
2017-03-13T00:56:49.983Z,99.99
2017-03-13T00:57:49.974Z,99.99
2017-03-13T00:58:49.552Z,99.99
2017-03-13T00:59:49.927Z,99.99
2017-03-13T01:00:49.893Z,99.99
2017-03-13T01:01:49.884Z,99.99
2017-03-13T01:02:49.872Z,99.99
2017-03-13T01:03:49.835Z,99.99
2017-03-13T01:04:49.826Z,99.99
2017-03-13T01:05:49.795Z,99.99
2017-03-13T01:06:49.772Z,99.99
2017-03-13T01:07:49.773Z,99.99
2017-03-13T01:08:49.746Z,99.99
2017-03-13T01:09:49.718Z,99.99
2017-03-13T01:10:49.687Z,99.99
2017-03-13T01:11:49.716Z,99.99
2017-03-13T01:12:49.645Z,99.99
2017-03-13T01:13:49.650Z,99.99
2017-03-13T01:14:49.600Z,99.99
2017-03-13T01:15:49.582Z,99.99
2017-03-13T01:16:49.571Z,99.99
2017-03-13T01:17:49.541Z,99.99
2017-03-13T01:18:49.516Z,99.99
2017-03-13T01:19:49.501Z,99.99
2017-03-13T01:20:49.485Z,99.99
2017-03-13T01:21:49.463Z,99.99
2017-03-13T01:22:49.470Z,99.99
2017-03-13T01:23:49.412Z,99.99
2017-03-13T01:24:49.395Z,99.99
2017-03-13T01:25:49.384Z,99.99
2017-03-13T01:26:49.363Z,99.99
2017-03-13T01:27:49.337Z,99.99
2017-03-13T01:28:49.321Z,99.99
2017-03-13T01:29:49.281Z,99.99
2017-03-13T01:30:49.274Z,99.99
2017-03-13T01:31:49.276Z,99.99
2017-03-13T01:32:49.234Z,99.99
2017-03-13T01:33:49.207Z,99.99
2017-03-13T01:34:49.197Z,99.99
2017-03-13T01:35:49.162Z,99.99
2017-03-13T01:36:49.146Z,99.99
2017-03-13T01:37:49.112Z,99.99
2017-03-13T01:38:49.104Z,99.99
2017-03-13T01:39:49.079Z,99.99
2017-03-13T01:40:49.047Z,99.99
2017-03-13T01:41:49.041Z,99.99
2017-03-13T01:42:49.006Z,99.99
2017-03-13T01:43:48.985Z,99.99
2017-03-13T01:44:48.974Z,99.99
2017-03-13T01:45:48.945Z,99.99
2017-03-13T01:46:48.917Z,99.99
2017-03-13T01:47:48.912Z,99.99
2017-03-13T01:48:48.883Z,99.99
2017-03-13T01:49:48.859Z,99.99
2017-03-13T01:50:48.849Z,99.99
2017-03-13T01:51:48.818Z,99.99
2017-03-13T01:52:48.807Z,99.99
2017-03-13T01:53:48.784Z,99.99
2017-03-13T01:54:48.762Z,99.99
2017-03-13T01:55:48.738Z,99.99
2017-03-13T01:56:48.720Z,99.99
2017-03-13T01:57:48.687Z,99.99
2017-03-13T01:58:48.668Z,99.99
2017-03-13T01:59:48.654Z,99.99
2017-03-13T02:00:48.629Z,99.99
2017-03-13T02:01:48.616Z,99.99
2017-03-13T02:02:48.580Z,99.99
2017-03-13T02:03:48.555Z,99.99
2017-03-13T02:04:48.545Z,99.99
2017-03-13T02:05:48.515Z,99.99
2017-03-13T02:06:48.506Z,99.99
2017-03-13T02:07:48.492Z,99.99
2017-03-13T02:08:48.449Z,99.99
2017-03-13T02:09:48.457Z,99.99
2017-03-13T02:10:48.415Z,99.99
2017-03-13T02:11:48.393Z,99.99
2017-03-13T02:12:48.361Z,99.99
2017-03-13T02:13:48.355Z,99.99
2017-03-13T02:14:48.329Z,99.99
2017-03-13T02:15:48.307Z,99.99
2017-03-13T02:16:47.910Z,99.99
2017-03-13T02:17:47.870Z,99.99
2017-03-13T02:18:47.859Z,99.99
2017-03-13T02:19:47.835Z,99.99
2017-03-13T02:20:47.821Z,99.99
2017-03-13T02:21:48.166Z,99.99
2017-03-13T02:22:48.154Z,99.99
2017-03-13T02:23:48.134Z,99.99
2017-03-13T02:24:48.122Z,99.99
2017-03-13T02:25:48.096Z,99.99
2017-03-13T02:26:48.073Z,99.99
2017-03-13T02:27:48.051Z,99.99
2017-03-13T02:28:48.032Z,99.99
2017-03-13T02:29:48.006Z,99.99
2017-03-13T02:30:47.988Z,99.99
2017-03-13T02:31:47.989Z,99.99
2017-03-13T02:32:47.940Z,99.99
2017-03-13T02:33:47.917Z,99.99
2017-03-13T02:34:47.888Z,99.99
2017-03-13T02:35:47.881Z,99.99
2017-03-13T02:36:47.865Z,99.99
2017-03-13T02:37:47.844Z,99.99
2017-03-13T02:38:47.822Z,99.99
2017-03-13T02:39:47.783Z,99.99
2017-03-13T02:40:47.765Z,99.99
2017-03-13T02:41:47.761Z,99.99
2017-03-13T02:42:47.733Z,99.99
2017-03-13T02:43:47.715Z,99.99
2017-03-13T02:44:47.691Z,99.99
2017-03-13T02:45:47.657Z,99.99
2017-03-13T02:46:47.648Z,99.99
2017-03-13T02:47:47.621Z,99.99
2017-03-13T02:48:47.602Z,99.99
2017-03-13T02:49:47.587Z,99.99
2017-03-13T02:50:47.567Z,99.99
2017-03-13T02:51:47.539Z,99.99
2017-03-13T02:52:47.517Z,99.99
2017-03-13T02:53:47.499Z,99.99
2017-03-13T02:54:47.467Z,99.99
2017-03-13T02:55:47.463Z,99.99
2017-03-13T02:56:47.419Z,99.99
2017-03-13T02:57:47.421Z,99.99
2017-03-13T02:58:47.403Z,99.99
2017-03-13T02:59:47.368Z,99.99
2017-03-13T03:00:47.331Z,99.99
2017-03-13T03:01:47.319Z,99.99
2017-03-13T03:02:47.297Z,99.99
2017-03-13T03:03:47.271Z,99.99
2017-03-13T03:04:47.277Z,99.99
2017-03-13T03:05:47.231Z,99.99
2017-03-13T03:06:47.219Z,99.99
2017-03-13T03:07:47.204Z,99.99
2017-03-13T03:08:47.181Z,99.99
2017-03-13T03:09:47.174Z,99.99
2017-03-13T03:10:47.122Z,99.99
2017-03-13T03:11:47.107Z,99.99
2017-03-13T03:12:47.095Z,99.99
2017-03-13T03:13:46.686Z,99.99
2017-03-13T03:14:47.038Z,99.99
2017-03-13T03:15:47.026Z,99.99
2017-03-13T03:16:47.007Z,99.99
2017-03-13T03:17:46.981Z,99.99
2017-03-13T03:18:46.962Z,99.99
2017-03-13T03:19:46.943Z,99.99
2017-03-13T03:20:46.914Z,99.99
2017-03-13T03:21:46.885Z,99.99
2017-03-13T03:22:46.877Z,99.99
2017-03-13T03:23:46.846Z,99.99
2017-03-13T03:24:46.830Z,99.99
2017-03-13T03:25:46.816Z,99.99
2017-03-13T03:26:46.781Z,99.99
2017-03-13T03:27:46.764Z,99.99
2017-03-13T03:28:46.744Z,99.99
2017-03-13T03:29:46.339Z,99.99
2017-03-13T03:30:46.702Z,99.99
2017-03-13T03:31:46.685Z,99.99
2017-03-13T03:32:46.665Z,99.99
2017-03-13T03:33:46.625Z,99.99
2017-03-13T03:34:46.620Z,99.99
2017-03-13T03:35:46.593Z,99.99
2017-03-13T03:36:46.579Z,99.99
2017-03-13T03:37:46.549Z,99.99
2017-03-13T03:38:46.531Z,99.99
2017-03-13T03:39:46.509Z,99.99
2017-03-13T03:40:46.487Z,99.99
2017-03-13T03:41:46.462Z,99.99
2017-03-13T03:42:46.043Z,99.99
2017-03-13T03:43:46.418Z,99.99
2017-03-13T03:44:46.403Z,99.99
2017-03-13T03:45:46.375Z,99.99
2017-03-13T03:46:46.357Z,99.99
2017-03-13T03:47:46.326Z,99.99
2017-03-13T03:48:45.927Z,99.99
2017-03-13T03:49:46.277Z,99.99
2017-03-13T03:50:46.269Z,99.99
2017-03-13T03:51:46.232Z,99.99
2017-03-13T03:52:46.215Z,99.99
2017-03-13T03:53:46.199Z,99.99
2017-03-13T03:54:46.187Z,99.99
2017-03-13T03:55:45.779Z,99.99
2017-03-13T03:56:46.122Z,99.99
2017-03-13T03:57:46.118Z,99.99
2017-03-13T03:58:46.082Z,99.99
2017-03-13T03:59:46.077Z,99.99
2017-03-13T04:00:46.047Z,99.99
2017-03-13T04:01:46.031Z,99.99
2017-03-13T04:02:46.004Z,99.99
2017-03-13T04:03:45.977Z,99.99
2017-03-13T04:04:45.970Z,99.99
2017-03-13T04:05:45.943Z,99.99
2017-03-13T04:06:45.919Z,99.99
2017-03-13T04:07:45.899Z,99.99
2017-03-13T04:08:45.864Z,99.99
2017-03-13T04:09:45.858Z,99.99
2017-03-13T04:10:45.823Z,99.99
2017-03-13T04:11:45.812Z,99.99
2017-03-13T04:12:45.798Z,99.99
2017-03-13T04:13:45.753Z,99.99
2017-03-13T04:14:45.735Z,99.99
2017-03-13T04:15:45.715Z,99.99
2017-03-13T04:16:45.694Z,99.99
2017-03-13T04:17:45.680Z,99.99
2017-03-13T04:18:45.657Z,99.99
2017-03-13T04:19:45.635Z,99.99
2017-03-13T04:20:45.618Z,99.99
2017-03-13T04:21:45.595Z,99.99
2017-03-13T04:22:45.570Z,99.99
2017-03-13T04:23:45.554Z,99.99
2017-03-13T04:24:45.531Z,99.99
2017-03-13T04:25:45.496Z,99.99
2017-03-13T04:26:45.476Z,99.99
2017-03-13T04:27:45.461Z,99.99
2017-03-13T04:28:45.437Z,99.99
2017-03-13T04:29:45.430Z,99.99
2017-03-13T04:30:45.381Z,99.99
2017-03-13T04:31:45.366Z,99.99
2017-03-13T04:32:45.342Z,99.74
2017-03-13T04:33:45.340Z,99.83
2017-03-13T04:34:45.311Z,99.99
2017-03-13T04:35:45.284Z,99.83
2017-03-13T04:36:45.254Z,99.74
2017-03-13T04:37:45.247Z,99.45
2017-03-13T04:38:45.217Z,99.36
2017-03-13T04:39:45.217Z,99.26
2017-03-13T04:40:45.165Z,99.08
2017-03-13T04:41:45.138Z,99.08
2017-03-13T04:42:45.132Z,99.36
2017-03-13T04:43:45.095Z,99.17
2017-03-13T04:44:45.074Z,98.6
2017-03-13T04:45:45.060Z,99.08
2017-03-13T04:46:45.025Z,99.08
2017-03-13T04:47:45.042Z,99.17
2017-03-13T04:48:45.003Z,98.89
2017-03-13T04:49:44.986Z,98.32
2017-03-13T04:50:44.942Z,98.51
2017-03-13T04:51:44.941Z,98.23
2017-03-13T04:52:44.894Z,98.51
2017-03-13T04:53:44.869Z,98.41
2017-03-13T04:54:44.863Z,98.13
2017-03-13T04:55:44.825Z,97.85
2017-03-13T04:56:44.810Z,97.94
2017-03-13T04:57:44.796Z,98.23
2017-03-13T04:58:44.773Z,97.85
2017-03-13T04:59:44.748Z,97.94
2017-03-13T05:00:44.717Z,97.56
2017-03-13T05:01:44.311Z,97.28
2017-03-13T05:02:44.295Z,97.75
2017-03-13T05:03:44.272Z,97.28
2017-03-13T05:04:44.235Z,97.19
2017-03-13T05:05:44.605Z,97
2017-03-13T05:06:44.601Z,97
2017-03-13T05:07:44.553Z,97.09
2017-03-13T05:08:44.545Z,96.53
2017-03-13T05:09:44.508Z,96.91
2017-03-13T05:10:44.500Z,96.44
2017-03-13T05:11:44.475Z,96.34
2017-03-13T05:12:44.442Z,96.34
2017-03-13T05:13:44.432Z,96.15
2017-03-13T05:14:44.397Z,96.06
2017-03-13T05:15:44.372Z,96.44
2017-03-13T05:16:44.356Z,96.06
2017-03-13T05:17:44.344Z,96.06
2017-03-13T05:18:44.319Z,95.87
2017-03-13T05:19:44.285Z,95.87
2017-03-13T05:20:44.271Z,95.5
2017-03-13T05:21:44.245Z,95.5
2017-03-13T05:22:44.218Z,95.5
2017-03-13T05:23:44.195Z,95.4
2017-03-13T05:24:44.182Z,95.97
2017-03-13T05:25:44.161Z,95.4
2017-03-13T05:26:44.124Z,95.5
2017-03-13T05:27:44.114Z,95.68
2017-03-13T05:28:44.094Z,95.5
2017-03-13T05:29:44.072Z,95.4
2017-03-13T05:30:44.048Z,95.5
2017-03-13T05:31:44.019Z,94.93
2017-03-13T05:32:44.005Z,94.83
2017-03-13T05:33:43.983Z,95.12
2017-03-13T05:34:43.962Z,95.21
2017-03-13T05:35:43.931Z,95.21
2017-03-13T05:36:43.913Z,95.02
2017-03-13T05:37:43.892Z,95.02
2017-03-13T05:38:43.858Z,95.12
2017-03-13T05:39:43.858Z,95.12
2017-03-13T05:40:43.824Z,94.55
2017-03-13T05:41:43.803Z,94.93
2017-03-13T05:42:43.777Z,94.74
2017-03-13T05:43:43.746Z,94.74
2017-03-13T05:44:43.737Z,94.65
2017-03-13T05:45:43.702Z,94.36
2017-03-13T05:46:43.674Z,94.08
2017-03-13T05:47:43.661Z,94.36
2017-03-13T05:48:43.633Z,94.55
2017-03-13T05:49:43.623Z,94.36
2017-03-13T05:50:43.611Z,93.89
2017-03-13T05:51:43.575Z,93.89
2017-03-13T05:52:43.563Z,94.08
2017-03-13T05:53:43.531Z,93.98
2017-03-13T05:54:43.497Z,93.98
2017-03-13T05:55:43.475Z,93.7
2017-03-13T05:56:43.462Z,93.7
2017-03-13T05:57:43.437Z,93.7
2017-03-13T05:58:43.028Z,93.13
2017-03-13T05:59:43.397Z,93.04
2017-03-13T06:00:43.387Z,93.23
2017-03-13T06:01:43.342Z,93.32
2017-03-13T06:02:43.316Z,93.42
2017-03-13T06:03:43.313Z,93.47
2017-03-13T06:04:43.274Z,92.99
2017-03-13T06:05:43.260Z,93.09
2017-03-13T06:06:43.239Z,92.71
2017-03-13T06:07:43.209Z,92.8
2017-03-13T06:08:43.184Z,92.33
2017-03-13T06:09:43.170Z,92.61
2017-03-13T06:10:43.151Z,92.71
2017-03-13T06:11:43.119Z,92.61
2017-03-13T06:12:43.098Z,92.61
2017-03-13T06:13:43.084Z,92.61
2017-03-13T06:14:43.068Z,92.8
2017-03-13T06:15:43.032Z,92.71
2017-03-13T06:16:43.019Z,92.05
2017-03-13T06:17:42.990Z,92.61
2017-03-13T06:18:42.982Z,92.52
2017-03-13T06:19:42.944Z,92.24
2017-03-13T06:20:42.923Z,92.24
2017-03-13T06:21:42.914Z,92.33
2017-03-13T06:22:42.878Z,92.33
2017-03-13T06:23:42.862Z,92.52
2017-03-13T06:24:42.850Z,92.14
2017-03-13T06:25:42.829Z,92.19
2017-03-13T06:26:42.808Z,92.38
2017-03-13T06:27:42.792Z,92.19
2017-03-13T06:28:42.759Z,92.85
2017-03-13T06:29:42.739Z,92.29
2017-03-13T06:30:42.722Z,92.66
2017-03-13T06:31:42.728Z,92.1
2017-03-13T06:32:42.701Z,92.29
2017-03-13T06:33:42.681Z,91.91
2017-03-13T06:34:42.662Z,92
2017-03-13T06:35:42.637Z,92
2017-03-13T06:36:42.616Z,92
2017-03-13T06:37:42.593Z,92.38
2017-03-13T06:38:42.186Z,92.52
2017-03-13T06:39:42.566Z,92.24
2017-03-13T06:40:42.525Z,92.43
2017-03-13T06:41:42.512Z,92.14
2017-03-13T06:42:42.516Z,91.96
2017-03-13T06:43:42.489Z,91.77
2017-03-13T06:44:42.458Z,91.77
2017-03-13T06:45:42.433Z,91.77
2017-03-13T06:46:42.422Z,91.44
2017-03-13T06:47:42.423Z,90.92
2017-03-13T06:48:42.384Z,91.06
2017-03-13T06:49:42.374Z,91.06
2017-03-13T06:50:42.356Z,91.06
2017-03-13T06:51:42.337Z,90.97
2017-03-13T06:52:42.307Z,90.87
2017-03-13T06:53:42.306Z,90.78
2017-03-13T06:54:42.281Z,90.4
2017-03-13T06:55:42.246Z,90.02
2017-03-13T06:56:42.246Z,90.59
2017-03-13T06:57:42.213Z,90.31
2017-03-13T06:58:42.196Z,90.68
2017-03-13T06:59:42.184Z,90.73
2017-03-13T07:00:42.173Z,90.64
2017-03-13T07:01:42.137Z,91.01
2017-03-13T07:02:42.122Z,90.64
2017-03-13T07:03:42.105Z,90.64
2017-03-13T07:04:42.089Z,90.73
2017-03-13T07:05:42.066Z,90.64
2017-03-13T07:06:42.059Z,90.4
2017-03-13T07:07:42.035Z,90.3
2017-03-13T07:08:42.019Z,90.26
2017-03-13T07:09:42.022Z,90.21
2017-03-13T07:10:41.972Z,90.16
2017-03-13T07:11:42.016Z,90.49
2017-03-13T07:12:41.950Z,90.4
2017-03-13T07:13:41.952Z,89.92
2017-03-13T07:14:41.903Z,89.73
2017-03-13T07:15:41.889Z,89.31
2017-03-13T07:16:41.873Z,89.59
2017-03-13T07:17:41.864Z,89.73
2017-03-13T07:18:41.847Z,89.64
2017-03-13T07:19:41.834Z,89.36
2017-03-13T07:20:41.810Z,89.54
2017-03-13T07:21:41.778Z,89.26
2017-03-13T07:22:41.759Z,89.17
2017-03-13T07:23:41.736Z,88.7
2017-03-13T07:24:41.728Z,89.07
2017-03-13T07:25:41.710Z,88.32
2017-03-13T07:26:41.682Z,88.51
2017-03-13T07:27:41.674Z,88.42
2017-03-13T07:28:41.664Z,88.23
2017-03-13T07:29:41.641Z,88.42
2017-03-13T07:30:41.610Z,88.79
2017-03-13T07:31:41.610Z,88.46
2017-03-13T07:32:41.583Z,88.51
2017-03-13T07:33:41.570Z,88.74
2017-03-13T07:34:41.169Z,88.08
2017-03-13T07:35:41.526Z,87.66
2017-03-13T07:36:41.509Z,88.32
2017-03-13T07:37:41.489Z,87.47
2017-03-13T07:38:41.463Z,87.8
2017-03-13T07:39:41.455Z,87.24
2017-03-13T07:40:41.427Z,88.04
2017-03-13T07:41:41.411Z,87.37
2017-03-13T07:42:41.405Z,87.37
2017-03-13T07:43:41.365Z,87.47
2017-03-13T07:44:41.357Z,88.04
2017-03-13T07:45:41.340Z,87.56
2017-03-13T07:46:41.330Z,87.75
2017-03-13T07:47:41.298Z,87.18
2017-03-13T07:48:41.297Z,86.8
2017-03-13T07:49:40.874Z,86.67
2017-03-13T07:50:41.232Z,86.76
2017-03-13T07:51:41.264Z,86.86
2017-03-13T07:52:41.219Z,87.56
2017-03-13T07:53:41.175Z,87.37
2017-03-13T07:54:41.167Z,87.04
2017-03-13T07:55:41.144Z,86.57
2017-03-13T07:56:41.117Z,86.43
2017-03-13T07:57:41.102Z,86.62
2017-03-13T07:58:41.291Z,86.24
2017-03-13T07:59:41.058Z,86.05
2017-03-13T08:00:41.053Z,85.91
2017-03-13T08:01:41.032Z,86.15
2017-03-13T08:02:41.016Z,86.33
2017-03-13T08:03:40.997Z,86.15
2017-03-13T08:04:40.970Z,86.05
2017-03-13T08:05:40.952Z,86.15
2017-03-13T08:06:40.936Z,86.1
2017-03-13T08:07:40.908Z,86
2017-03-13T08:08:40.919Z,85.91
2017-03-13T08:09:40.889Z,86
2017-03-13T08:10:40.865Z,85.05
2017-03-13T08:11:40.853Z,84.59
2017-03-13T08:12:40.839Z,84.88
2017-03-13T08:13:40.821Z,84.78
2017-03-13T08:14:40.790Z,85.35
2017-03-13T08:15:40.392Z,85.16
2017-03-13T08:16:40.774Z,85.72
2017-03-13T08:17:40.743Z,85.63
2017-03-13T08:18:40.719Z,85.91
2017-03-13T08:19:40.689Z,85.72
2017-03-13T08:20:40.284Z,85.16
2017-03-13T08:21:40.666Z,84.45
2017-03-13T08:22:40.657Z,85.02
2017-03-13T08:23:40.625Z,85.21
2017-03-13T08:24:40.590Z,85.26
2017-03-13T08:25:40.192Z,84.98
2017-03-13T08:26:40.564Z,84.98
2017-03-13T08:27:40.543Z,85.54
2017-03-13T08:28:40.525Z,85.64
2017-03-13T08:29:40.508Z,85.73
2017-03-13T08:30:40.487Z,85.73
2017-03-13T08:31:40.457Z,86.21
2017-03-13T08:32:40.449Z,87.05
2017-03-13T08:33:40.439Z,87.34
2017-03-13T08:34:40.410Z,87.71
2017-03-13T08:35:40.389Z,87.52
2017-03-13T08:36:40.373Z,88.56
2017-03-13T08:37:40.346Z,88.94
2017-03-13T08:38:40.324Z,89.64
2017-03-13T08:39:40.296Z,90.12
2017-03-13T08:40:40.283Z,90.5
2017-03-13T08:41:40.284Z,90.97
2017-03-13T08:42:40.253Z,91.35
2017-03-13T08:43:40.232Z,91.82
2017-03-13T08:44:40.199Z,92
2017-03-13T08:45:39.808Z,91.91
2017-03-13T08:46:40.190Z,92.24
2017-03-13T08:47:40.149Z,93.04
2017-03-13T08:48:40.132Z,93.04
2017-03-13T08:49:40.104Z,93.28
2017-03-13T08:50:40.103Z,93.84
2017-03-13T08:51:40.064Z,94.79
2017-03-13T08:52:40.048Z,94.88
2017-03-13T08:53:40.021Z,95.97
2017-03-13T08:54:40.010Z,95.97
2017-03-13T08:55:39.987Z,96.25
2017-03-13T08:56:39.977Z,96.72
2017-03-13T08:57:39.948Z,97.24
2017-03-13T08:58:39.921Z,97.43
2017-03-13T08:59:39.907Z,98.09
2017-03-13T09:00:39.880Z,98.04
2017-03-13T09:01:39.867Z,98.9
2017-03-13T09:02:39.855Z,99.08
2017-03-13T09:03:39.850Z,99.46
2017-03-13T09:04:39.816Z,99.74
2017-03-13T09:05:39.809Z,99.99
2017-03-13T09:06:39.761Z,99.99
2017-03-13T09:07:39.774Z,99.99
2017-03-13T09:08:39.727Z,99.99
2017-03-13T09:09:39.714Z,99.99
2017-03-13T09:10:39.682Z,99.99
2017-03-13T09:11:39.678Z,99.99
2017-03-13T09:12:39.646Z,99.99
2017-03-13T09:13:39.630Z,99.99
2017-03-13T09:14:39.618Z,99.99
2017-03-13T09:15:39.587Z,99.99
2017-03-13T09:16:39.590Z,99.99
2017-03-13T09:17:39.552Z,99.99
2017-03-13T09:18:39.543Z,99.99
2017-03-13T09:19:39.722Z,99.99
2017-03-13T09:20:39.489Z,99.99
2017-03-13T09:21:39.483Z,99.99
2017-03-13T09:22:39.451Z,99.99
2017-03-13T09:23:39.433Z,99.99
2017-03-13T09:24:39.431Z,99.99
2017-03-13T09:25:39.401Z,99.99
2017-03-13T09:26:39.390Z,99.99
2017-03-13T09:27:39.372Z,99.99
2017-03-13T09:28:39.343Z,99.99
2017-03-13T09:29:39.347Z,99.99
2017-03-13T09:30:39.311Z,99.99
2017-03-13T09:31:38.917Z,99.99
2017-03-13T09:32:39.283Z,99.99
2017-03-13T09:33:39.267Z,99.99
2017-03-13T09:34:39.239Z,99.99
2017-03-13T09:35:39.212Z,99.99
2017-03-13T09:36:39.205Z,99.99
2017-03-13T09:37:39.173Z,99.99
2017-03-13T09:38:39.167Z,99.99
2017-03-13T09:39:39.142Z,99.99
2017-03-13T09:40:39.133Z,99.99
2017-03-13T09:41:39.120Z,99.99
2017-03-13T09:42:39.091Z,99.99
2017-03-13T09:43:39.071Z,99.99
2017-03-13T09:44:39.050Z,99.99
2017-03-13T09:45:39.044Z,99.99
2017-03-13T09:46:39.030Z,99.99
2017-03-13T09:47:39.200Z,99.99
2017-03-13T09:48:39.177Z,99.99
2017-03-13T09:49:38.975Z,99.99
2017-03-13T09:50:38.954Z,99.99
2017-03-13T09:51:38.938Z,99.99
2017-03-13T09:52:38.922Z,99.99
2017-03-13T09:53:38.891Z,99.99
2017-03-13T09:54:39.077Z,99.99
2017-03-13T09:55:38.868Z,99.99
2017-03-13T09:56:38.846Z,99.99
2017-03-13T09:57:38.831Z,99.99
2017-03-13T09:58:38.811Z,99.99
2017-03-13T09:59:38.790Z,99.99
2017-03-13T10:00:38.775Z,99.99
2017-03-13T10:01:38.747Z,99.99
2017-03-13T10:02:38.739Z,99.99
2017-03-13T10:03:38.732Z,99.99
2017-03-13T10:04:38.705Z,99.99
2017-03-13T10:05:38.686Z,99.99
2017-03-13T10:06:38.695Z,99.99
2017-03-13T10:07:38.649Z,99.99
2017-03-13T10:08:38.644Z,99.99
2017-03-13T10:09:38.643Z,99.99
2017-03-13T10:10:38.619Z,99.99
2017-03-13T10:11:38.595Z,99.99
2017-03-13T10:12:38.579Z,99.99
2017-03-13T10:13:38.559Z,99.99
2017-03-13T10:14:38.558Z,99.99
2017-03-13T10:15:38.530Z,99.99
2017-03-13T10:16:38.498Z,99.99
2017-03-13T10:17:38.481Z,99.99
2017-03-13T10:18:38.481Z,99.99
2017-03-13T10:19:38.469Z,97.53
2017-03-13T10:20:38.444Z,94.65
2017-03-13T10:21:38.434Z,92.57
2017-03-13T10:22:38.419Z,92.14
2017-03-13T10:23:38.405Z,91.43
2017-03-13T10:24:38.373Z,92.1
2017-03-13T10:25:38.387Z,92.43
2017-03-13T10:26:38.350Z,92.24
2017-03-13T10:27:38.357Z,91.96
2017-03-13T10:28:38.319Z,87.27
2017-03-13T10:29:38.309Z,86.61
2017-03-13T10:30:38.292Z,84.81
2017-03-13T10:31:38.293Z,82.59
2017-03-13T10:32:38.271Z,81.64
2017-03-13T10:33:38.247Z,79.66
2017-03-13T10:34:38.231Z,78.71
2017-03-13T10:35:38.228Z,71.42
2017-03-13T10:36:38.217Z,67.55
2017-03-13T10:37:38.196Z,65.56
2017-03-13T10:38:38.180Z,65.18
2017-03-13T10:39:38.168Z,63.95
2017-03-13T10:40:38.148Z,63.1
2017-03-13T10:41:38.159Z,62.34
2017-03-13T10:42:38.145Z,62.15
2017-03-13T10:43:38.134Z,61.3
2017-03-13T10:44:38.105Z,61.87
2017-03-13T10:45:38.087Z,62.34
2017-03-13T10:46:38.087Z,64.52
2017-03-13T10:47:38.057Z,66.75
2017-03-13T10:48:38.055Z,70.21
2017-03-13T10:49:38.052Z,74.9
2017-03-13T10:50:38.019Z,78.87
2017-03-13T10:51:38.005Z,81.67
2017-03-13T10:52:37.989Z,83.36
2017-03-13T10:53:37.984Z,84.88
2017-03-13T10:54:37.956Z,85.53
2017-03-13T10:55:37.563Z,86.86
2017-03-13T10:56:37.961Z,87.52
2017-03-13T10:57:37.530Z,88.09
2017-03-13T10:58:37.907Z,88.09
2017-03-13T10:59:37.887Z,88.28
2017-03-13T11:00:37.862Z,88.56
2017-03-13T11:01:37.862Z,88.84
2017-03-13T11:02:37.850Z,88.51
2017-03-13T11:03:37.815Z,88.51
2017-03-13T11:04:37.801Z,88.98
2017-03-13T11:05:37.791Z,90.02
2017-03-13T11:06:37.770Z,91.15
2017-03-13T11:07:37.746Z,92.33
2017-03-13T11:08:37.758Z,93.09
2017-03-13T11:09:37.717Z,93.84
2017-03-13T11:10:37.708Z,94.51
2017-03-13T11:11:37.676Z,94.7
2017-03-13T11:12:37.676Z,96.11
2017-03-13T11:13:37.653Z,96.96
2017-03-13T11:14:37.633Z,97.1
2017-03-13T11:15:37.614Z,97.15
2017-03-13T11:16:37.591Z,97.72
2017-03-13T11:17:37.589Z,98.1
2017-03-13T11:18:37.186Z,97.72
2017-03-13T11:19:37.559Z,96.58
2017-03-13T11:20:37.528Z,96.25
2017-03-13T11:21:37.514Z,95.12
2017-03-13T11:22:37.490Z,93.99
2017-03-13T11:23:37.471Z,95.03
2017-03-13T11:24:37.086Z,95.68
2017-03-13T11:25:37.453Z,96.82
2017-03-13T11:26:37.434Z,97.91
2017-03-13T11:27:37.419Z,97.53
2017-03-13T11:28:37.395Z,97.53
2017-03-13T11:29:37.385Z,97.48
2017-03-13T11:30:37.350Z,97.58
2017-03-13T11:31:37.344Z,97.2
2017-03-13T11:32:37.324Z,97.1
2017-03-13T11:33:37.329Z,97.01
2017-03-13T11:34:37.294Z,96.25
2017-03-13T11:35:37.266Z,95.07
2017-03-13T11:36:37.252Z,94.98
2017-03-13T11:37:37.246Z,95.92
2017-03-13T11:38:36.838Z,96.35
2017-03-13T11:39:37.205Z,97.01
2017-03-13T11:40:37.205Z,97.77
2017-03-13T11:41:37.171Z,99.32
2017-03-13T11:42:37.172Z,99.22
2017-03-13T11:43:37.136Z,98.66
2017-03-13T11:44:37.118Z,98.28
2017-03-13T11:45:37.110Z,98.05
2017-03-13T11:46:37.090Z,97.2
2017-03-13T11:47:37.078Z,97.67
2017-03-13T11:48:37.063Z,98.52
2017-03-13T11:49:37.038Z,98.28
2017-03-13T11:50:37.029Z,98.24
2017-03-13T11:51:37.002Z,97.1
2017-03-13T11:52:36.998Z,95.45
2017-03-13T11:53:36.967Z,94.22
2017-03-13T11:54:36.964Z,93.84
2017-03-13T11:55:36.931Z,92.33
2017-03-13T11:56:36.926Z,93.61
2017-03-13T11:57:36.922Z,94.7
2017-03-13T11:58:36.897Z,94.89
2017-03-13T11:59:36.873Z,94.79
2017-03-13T12:00:36.854Z,95.03
2017-03-13T12:01:36.846Z,94.93
2017-03-13T12:02:36.837Z,94.41
2017-03-13T12:03:36.798Z,94.22
2017-03-13T12:04:36.797Z,94.98
2017-03-13T12:05:36.779Z,94.37
2017-03-13T12:06:36.779Z,95.73
2017-03-13T12:07:36.733Z,96.44
2017-03-13T12:08:36.727Z,97.01
2017-03-13T12:09:36.702Z,97.34
2017-03-13T12:10:36.686Z,98
2017-03-13T12:11:36.681Z,98.57
2017-03-13T12:12:36.669Z,99.41
2017-03-13T12:13:36.638Z,99.32
2017-03-13T12:14:36.627Z,99.6
2017-03-13T12:15:36.608Z,99.99
2017-03-13T12:16:36.584Z,99.99
2017-03-13T12:17:36.572Z,99.79
2017-03-13T12:18:36.548Z,99.6
2017-03-13T12:19:36.548Z,99.22
2017-03-13T12:20:36.510Z,99.88
2017-03-13T12:21:36.491Z,99.7
2017-03-13T12:22:36.473Z,99.99
2017-03-13T12:23:36.469Z,99.22
2017-03-13T12:24:36.450Z,98.99
2017-03-13T12:25:36.415Z,98.05
2017-03-13T12:26:36.416Z,98.61
2017-03-13T12:27:36.413Z,98.24
2017-03-13T12:28:36.376Z,98.43
2017-03-13T12:29:36.359Z,98.05
2017-03-13T12:30:36.328Z,97.77
2017-03-13T12:31:36.330Z,97.39
2017-03-13T12:32:36.309Z,96.59
2017-03-13T12:33:36.293Z,97.15
2017-03-13T12:34:36.263Z,98.9
2017-03-13T12:35:36.260Z,99.08
2017-03-13T12:36:36.234Z,99.99
2017-03-13T12:37:36.212Z,99.99
2017-03-13T12:38:36.205Z,99.99
2017-03-13T12:39:36.184Z,99.99
2017-03-13T12:40:36.162Z,99.99
2017-03-13T12:41:36.156Z,99.99
2017-03-13T12:42:35.733Z,99.99
2017-03-13T12:43:36.112Z,99.99
2017-03-13T12:44:36.080Z,99.99
2017-03-13T12:45:36.074Z,99.99
2017-03-13T12:46:36.043Z,99.08
2017-03-13T12:47:36.039Z,98.19
2017-03-13T12:48:36.023Z,98.19
2017-03-13T12:49:35.613Z,98.1
2017-03-13T12:50:35.982Z,98.47
2017-03-13T12:54:15.943Z,99.23
2017-03-13T12:55:15.933Z,99.27
2017-03-13T12:56:15.906Z,99.08
2017-03-13T12:57:15.889Z,99.56